Time;durP1;ratioP1;P1;durP2;ratioP2;P2;SDS_P1;SDS_P2;PMS_P1;PMS_P2;Temp;Humidity;BMP_temperature;BMP_pressure;BME280_temperature;BME280_humidity;BME280_pressure;Samples;Min_cycle;Max_cycle;Signal;HPM_P1;HPM_P2
2022/05/27 00:01:21;;;;;;;1.60;1.35;;;21.90;58.50;;;;;;4909614;28;91439;-63
2022/05/27 00:03:47;;;;;;;1.95;1.40;;;21.90;58.50;;;;;;4908371;28;93164;-63
2022/05/27 00:06:13;;;;;;;2.17;1.33;;;21.90;58.40;;;;;;4908147;28;93084;-65
2022/05/27 00:08:39;;;;;;;1.85;1.10;;;21.90;58.50;;;;;;4907927;28;92959;-64
2022/05/27 00:11:05;;;;;;;1.60;1.10;;;21.90;58.40;;;;;;4908487;28;93024;-63
2022/05/27 00:13:32;;;;;;;2.35;1.20;;;21.80;58.80;;;;;;4909116;28;92710;-63
2022/05/27 00:15:58;;;;;;;2.28;1.40;;;21.90;58.80;;;;;;4911764;28;92634;-63
2022/05/27 00:18:24;;;;;;;1.05;0.95;;;21.80;58.70;;;;;;4912471;28;91901;-64
2022/05/27 00:20:50;;;;;;;2.47;1.40;;;21.80;58.60;;;;;;4912715;28;91949;-63
2022/05/27 00:23:17;;;;;;;1.50;1.27;;;21.90;58.80;;;;;;4912019;28;93048;-63
2022/05/27 00:25:43;;;;;;;2.10;1.27;;;21.90;58.80;;;;;;4911076;28;92450;-63
2022/05/27 00:28:09;;;;;;;1.73;1.15;;;21.80;58.70;;;;;;4911445;28;93106;-63
2022/05/27 00:30:35;;;;;;;2.40;1.27;;;21.80;58.80;;;;;;4911800;28;92619;-63
2022/05/27 00:33:02;;;;;;;2.65;1.50;;;21.80;58.60;;;;;;4910998;28;94097;-64
2022/05/27 00:35:28;;;;;;;1.77;1.10;;;21.80;58.70;;;;;;4911484;28;93552;-64
2022/05/27 00:37:54;;;;;;;1.67;1.20;;;21.80;58.80;;;;;;4911726;28;93250;-62
2022/05/27 00:40:21;;;;;;;2.15;1.50;;;21.90;58.80;;;;;;4910846;28;92686;-63
2022/05/27 00:42:47;;;;;;;1.92;1.27;;;21.80;58.70;;;;;;4910517;28;93101;-64
2022/05/27 00:45:28;;;;;;;2.55;1.50;;;21.80;58.70;;;;;;4911022;28;92862;-64
2022/05/27 00:47:58;;;;;;;1.30;1.08;;;21.80;58.80;;;;;;4911664;28;92795;-64
2022/05/27 00:50:27;;;;;;;2.15;1.20;;;21.80;58.80;;;;;;4911327;28;91850;-63
2022/05/27 00:52:55;;;;;;;2.03;1.35;;;21.80;58.80;;;;;;4911065;28;93196;-63
2022/05/27 00:55:28;;;;;;;1.70;1.20;;;21.80;58.70;;;;;;4910953;28;92816;-63
2022/05/27 00:58:05;;;;;;;1.45;1.30;;;21.80;58.70;;;;;;4911185;28;93627;-64
2022/05/27 01:00:30;;;;;;;1.25;1.10;;;21.80;58.70;;;;;;4911785;28;92730;-62
2022/05/27 01:02:58;;;;;;;1.25;1.15;;;21.80;58.80;;;;;;4911218;28;92953;-64
2022/05/27 01:05:25;;;;;;;1.50;1.40;;;21.80;58.90;;;;;;4910688;28;93886;-64
2022/05/27 01:07:54;;;;;;;2.35;1.38;;;21.80;58.60;;;;;;4910878;28;92605;-62
2022/05/27 01:10:20;;;;;;;2.30;1.33;;;21.80;58.80;;;;;;4910917;28;92868;-63
2022/05/27 01:13:12;;;;;;;1.88;1.25;;;21.80;58.70;;;;;;4910835;28;93178;-64
2022/05/27 01:15:40;;;;;;;2.03;1.48;;;21.80;58.40;;;;;;4911121;28;92818;-63
2022/05/27 01:18:21;;;;;;;1.73;1.00;;;21.80;58.70;;;;;;4911394;28;92627;-63
2022/05/27 01:20:53;;;;;;;1.13;1.02;;;21.80;58.70;;;;;;4910435;28;92906;-63
2022/05/27 01:23:27;;;;;;;1.92;1.25;;;21.80;58.60;;;;;;4910033;28;94078;-63
2022/05/27 01:26:12;;;;;;;1.45;1.23;;;21.80;58.70;;;;;;4909875;28;93225;-64
2022/05/27 01:29:16;;;;;;;4.20;1.75;;;21.80;58.60;;;;;;4911508;28;92487;-64
2022/05/27 01:31:50;;;;;;;1.50;1.00;;;21.80;58.60;;;;;;4904512;28;92621;-63
2022/05/27 01:34:34;;;;;;;1.20;1.10;;;21.80;58.50;;;;;;4910679;28;93198;-64
2022/05/27 01:37:24;;;;;;;1.45;1.10;;;21.80;58.10;;;;;;4909962;28;93085;-64
2022/05/27 01:40:04;;;;;;;1.67;1.30;;;21.80;58.20;;;;;;4910097;28;92682;-64
2022/05/27 01:42:42;;;;;;;1.20;1.10;;;21.80;58.30;;;;;;4909857;28;91670;-64
2022/05/27 01:45:21;;;;;;;1.48;1.05;;;21.80;58.30;;;;;;4908640;28;93643;-63
2022/05/27 01:47:59;;;;;;;1.75;1.40;;;21.80;58.10;;;;;;4909991;28;93977;-63
2022/05/27 01:50:49;;;;;;;1.83;1.30;;;21.80;58.10;;;;;;4910261;28;92875;-64
2022/05/27 01:53:37;;;;;;;1.27;1.17;;;21.80;58.20;;;;;;4910360;28;92039;-63
2022/05/27 01:56:08;;;;;;;2.72;1.27;;;21.80;58.10;;;;;;4909180;28;93104;-63
2022/05/27 01:58:39;;;;;;;1.13;0.93;;;21.80;58.20;;;;;;4910089;28;93817;-64
2022/05/27 02:01:10;;;;;;;1.83;1.20;;;21.80;58.30;;;;;;4911168;28;92561;-63
2022/05/27 02:03:44;;;;;;;1.15;1.05;;;21.80;58.10;;;;;;4910881;28;93351;-63
2022/05/27 02:06:25;;;;;;;1.23;1.10;;;21.80;58.20;;;;;;4909951;28;93434;-64
2022/05/27 02:08:56;;;;;;;1.73;1.05;;;21.80;58.20;;;;;;4910795;28;92820;-64
2022/05/27 02:11:24;;;;;;;1.88;1.38;;;21.80;58.10;;;;;;4910722;28;91995;-63
2022/05/27 02:14:16;;;;;;;1.33;1.00;;;21.80;58.10;;;;;;4910447;28;92327;-64
2022/05/27 02:16:52;;;;;;;1.48;1.00;;;21.80;58.20;;;;;;4903039;28;94153;-63
2022/05/27 02:19:24;;;;;;;1.67;1.20;;;21.70;58.00;;;;;;4909357;28;93244;-64
2022/05/27 02:22:01;;;;;;;1.85;1.30;;;21.80;58.20;;;;;;4909859;28;92657;-63
2022/05/27 02:24:36;;;;;;;1.88;1.27;;;21.70;57.90;;;;;;4908851;28;92897;-63
2022/05/27 02:27:14;;;;;;;1.25;1.13;;;21.80;58.10;;;;;;4923112;28;94309;-62
2022/05/27 02:29:43;;;;;;;2.33;1.10;;;21.80;58.20;;;;;;4909748;28;92742;-63
2022/05/27 02:32:13;;;;;;;1.60;1.05;;;21.70;58.10;;;;;;4909844;28;93028;-63
2022/05/27 02:35:10;;;;;;;1.60;1.17;;;21.70;58.10;;;;;;4909209;28;92347;-64
2022/05/27 02:37:50;;;;;;;1.00;1.00;;;21.70;58.10;;;;;;4907702;28;93117;-65
2022/05/27 02:40:23;;;;;;;1.42;1.02;;;21.70;58.00;;;;;;4908524;28;92752;-63
2022/05/27 02:43:13;;;;;;;1.20;1.10;;;21.80;58.10;;;;;;4909000;28;93707;-63
2022/05/27 02:45:48;;;;;;;1.95;1.13;;;21.70;58.00;;;;;;4899626;28;93058;-64
2022/05/27 02:48:32;;;;;;;1.33;1.15;;;21.70;58.20;;;;;;4909263;28;92755;-63
2022/05/27 02:51:33;;;;;;;1.98;1.10;;;21.70;58.00;;;;;;4908683;28;92749;-63
2022/05/27 02:54:01;;;;;;;1.10;0.93;;;21.70;58.10;;;;;;4887381;28;92746;-62
2022/05/27 02:56:49;;;;;;;1.20;0.90;;;21.70;58.00;;;;;;4908850;28;94319;-64
2022/05/27 02:59:17;;;;;;;1.17;1.05;;;21.70;58.10;;;;;;4908968;28;94476;-63
2022/05/27 03:01:47;;;;;;;1.27;1.10;;;21.70;58.00;;;;;;4910052;28;92789;-64
2022/05/27 03:04:17;;;;;;;1.00;0.90;;;21.70;58.10;;;;;;4910047;28;92789;-63
2022/05/27 03:07:03;;;;;;;1.77;1.23;;;21.70;58.00;;;;;;4908486;28;92840;-64
2022/05/27 03:10:02;;;;;;;2.25;1.30;;;21.70;57.90;;;;;;4908946;28;94755;-64
2022/05/27 03:12:30;;;;;;;2.47;1.30;;;21.70;58.00;;;;;;4909069;28;93839;-64
2022/05/27 03:15:22;;;;;;;1.20;1.10;;;21.70;57.90;;;;;;4909228;28;92007;-63
2022/05/27 03:18:00;;;;;;;1.27;1.10;;;21.70;57.90;;;;;;4896679;28;92963;-64
2022/05/27 03:20:34;;;;;;;1.73;1.25;;;21.70;58.10;;;;;;4908575;28;93344;-64
2022/05/27 03:23:29;;;;;;;1.92;1.33;;;21.70;58.00;;;;;;4908896;28;92978;-63
2022/05/27 03:26:07;;;;;;;2.55;1.13;;;21.70;58.00;;;;;;4909335;28;92851;-63
2022/05/27 03:28:55;;;;;;;1.92;1.33;;;21.70;58.20;;;;;;4909470;28;92428;-63
2022/05/27 03:31:50;;;;;;;1.53;1.27;;;21.70;58.20;;;;;;4908040;28;93088;-63
2022/05/27 03:34:25;;;;;;;1.67;1.30;;;21.70;58.50;;;;;;4899259;28;92917;-64
2022/05/27 03:37:04;;;;;;;1.17;1.00;;;21.70;58.10;;;;;;4908970;28;93531;-64
2022/05/27 03:39:41;;;;;;;1.83;1.20;;;21.70;58.00;;;;;;4909727;28;92957;-64
2022/05/27 03:42:09;;;;;;;2.38;1.15;;;21.70;58.10;;;;;;4908967;28;93399;-63
2022/05/27 03:44:35;;;;;;;1.13;1.02;;;21.70;58.10;;;;;;4908537;28;93889;-64
2022/05/27 03:47:02;;;;;;;1.10;1.00;;;21.70;58.00;;;;;;4908810;28;92647;-63
2022/05/27 03:49:28;;;;;;;1.30;1.10;;;21.70;58.10;;;;;;4908204;28;93300;-63
2022/05/27 03:52:05;;;;;;;1.30;1.05;;;21.70;58.20;;;;;;4907501;28;96665;-64
2022/05/27 03:54:31;;;;;;;1.63;1.20;;;21.70;58.20;;;;;;4909264;28;93410;-63
2022/05/27 03:56:57;;;;;;;1.40;1.20;;;21.60;58.10;;;;;;4908568;28;92774;-63
2022/05/27 03:59:24;;;;;;;1.65;1.40;;;21.70;58.10;;;;;;4908903;28;92042;-63
2022/05/27 04:01:52;;;;;;;2.85;1.50;;;21.70;58.00;;;;;;4908196;28;94189;-64
2022/05/27 04:04:21;;;;;;;1.63;1.10;;;21.70;58.00;;;;;;4906058;28;96224;-63
2022/05/27 04:06:47;;;;;;;1.80;1.20;;;21.70;58.00;;;;;;4907484;28;93237;-63
2022/05/27 04:09:17;;;;;;;1.23;1.00;;;21.70;58.00;;;;;;4907949;28;92533;-63
2022/05/27 04:11:44;;;;;;;1.45;1.10;;;21.70;58.20;;;;;;4908442;28;92983;-62
2022/05/27 04:14:10;;;;;;;1.20;1.10;;;21.70;58.00;;;;;;4908857;28;92796;-64
2022/05/27 04:16:35;;;;;;;1.60;1.20;;;21.70;58.70;;;;;;4908686;28;92903;-65
2022/05/27 04:19:01;;;;;;;1.45;1.10;;;21.60;57.90;;;;;;4909515;28;91411;-64
2022/05/27 04:21:27;;;;;;;1.77;1.20;;;21.60;57.90;;;;;;4908585;28;93108;-63
2022/05/27 04:23:53;;;;;;;1.27;1.17;;;21.60;58.00;;;;;;4908305;28;92786;-63
2022/05/27 04:26:18;;;;;;;1.75;1.20;;;21.70;58.10;;;;;;4906876;28;93444;-63
2022/05/27 04:28:44;;;;;;;1.40;1.08;;;21.70;58.00;;;;;;4907615;28;92981;-64
2022/05/27 04:31:10;;;;;;;1.67;1.20;;;21.60;58.10;;;;;;4907578;28;93292;-63
2022/05/27 04:33:36;;;;;;;1.20;0.95;;;21.60;58.00;;;;;;4907874;28;93014;-63
2022/05/27 04:36:02;;;;;;;1.92;1.23;;;21.60;58.10;;;;;;4907667;28;93185;-63
2022/05/27 04:38:28;;;;;;;1.33;1.10;;;21.60;58.10;;;;;;4908685;28;92729;-63
2022/05/27 04:40:54;;;;;;;1.35;1.15;;;21.60;58.00;;;;;;4908040;28;92748;-63
2022/05/27 04:43:20;;;;;;;1.65;1.10;;;21.60;57.90;;;;;;4907869;28;93066;-63
2022/05/27 04:45:45;;;;;;;1.50;1.13;;;21.60;58.10;;;;;;4907544;28;93405;-63
2022/05/27 04:48:12;;;;;;;1.42;1.02;;;21.60;58.00;;;;;;4907735;28;92898;-64
2022/05/27 04:50:37;;;;;;;1.15;1.00;;;21.60;58.10;;;;;;4907488;28;94043;-64
2022/05/27 04:53:04;;;;;;;1.48;1.30;;;21.60;58.20;;;;;;4907856;28;93928;-64
2022/05/27 04:55:32;;;;;;;1.35;1.05;;;21.60;58.10;;;;;;4908179;28;92347;-63
2022/05/27 04:58:01;;;;;;;1.30;1.20;;;21.60;58.00;;;;;;4908231;28;92867;-63
2022/05/27 05:00:30;;;;;;;2.00;1.30;;;21.60;58.10;;;;;;4910436;28;93231;-64
2022/05/27 05:02:56;;;;;;;2.15;1.30;;;21.60;58.00;;;;;;4911456;28;92236;-64
2022/05/27 05:05:24;;;;;;;1.73;1.30;;;21.60;58.10;;;;;;4911530;28;92977;-63
2022/05/27 05:08:13;;;;;;;2.25;1.48;;;21.60;58.00;;;;;;4911337;28;92130;-63
2022/05/27 05:10:39;;;;;;;1.25;1.15;;;21.60;58.10;;;;;;4909568;28;93132;-63
2022/05/27 05:13:04;;;;;;;1.30;1.20;;;21.60;58.00;;;;;;4910486;28;92883;-63
2022/05/27 05:15:30;;;;;;;1.40;1.00;;;21.60;58.00;;;;;;4910376;28;93442;-63
2022/05/27 05:17:56;;;;;;;1.65;1.10;;;21.60;57.90;;;;;;4910809;28;92436;-63
2022/05/27 05:20:26;;;;;;;1.20;1.10;;;21.60;58.00;;;;;;4910640;28;93272;-63
2022/05/27 05:22:52;;;;;;;1.77;1.17;;;21.60;57.90;;;;;;4911374;28;92966;-63
2022/05/27 05:25:18;;;;;;;1.67;1.23;;;21.60;57.90;;;;;;4910563;28;92671;-63
2022/05/27 05:27:44;;;;;;;1.27;1.05;;;21.60;58.00;;;;;;4911346;28;93339;-62
2022/05/27 05:30:14;;;;;;;2.40;1.48;;;21.60;58.10;;;;;;4910934;28;93251;-63
2022/05/27 05:32:40;;;;;;;2.38;1.02;;;21.60;58.00;;;;;;4911231;28;94165;-63
2022/05/27 05:35:07;;;;;;;2.90;1.55;;;21.60;58.00;;;;;;4909686;28;93287;-63
2022/05/27 05:37:33;;;;;;;1.38;1.27;;;21.60;57.90;;;;;;4910826;28;92955;-63
2022/05/27 05:39:59;;;;;;;1.33;1.10;;;21.60;57.90;;;;;;4909774;28;94112;-63
2022/05/27 05:42:25;;;;;;;1.10;1.00;;;21.60;57.90;;;;;;4909512;28;93681;-63
2022/05/27 05:44:50;;;;;;;2.05;1.20;;;21.50;57.90;;;;;;4910058;28;93128;-64
2022/05/27 05:47:16;;;;;;;1.23;1.02;;;21.60;57.90;;;;;;4909359;28;92710;-63
2022/05/27 05:49:42;;;;;;;1.40;1.00;;;21.60;58.00;;;;;;4909986;28;93214;-63
2022/05/27 05:52:08;;;;;;;1.23;1.13;;;21.50;58.00;;;;;;4909417;28;93030;-63
2022/05/27 05:54:34;;;;;;;1.35;1.02;;;21.60;58.00;;;;;;4910219;28;92527;-64
2022/05/27 05:57:02;;;;;;;1.08;0.98;;;21.50;57.90;;;;;;4909489;28;91990;-64
2022/05/27 05:59:30;;;;;;;1.23;1.00;;;21.50;58.00;;;;;;4910154;28;94103;-63
2022/05/27 06:01:56;;;;;;;1.40;1.30;;;21.60;57.90;;;;;;4910270;28;92391;-65
2022/05/27 06:04:22;;;;;;;1.55;1.10;;;21.60;57.90;;;;;;4909839;28;94001;-62
2022/05/27 06:06:48;;;;;;;2.28;1.30;;;21.50;57.90;;;;;;4909391;28;92299;-64
2022/05/27 06:09:14;;;;;;;1.15;1.05;;;21.60;58.00;;;;;;4908968;28;93292;-63
2022/05/27 06:11:40;;;;;;;1.13;1.02;;;21.60;57.90;;;;;;4909414;28;93154;-63
2022/05/27 06:14:06;;;;;;;1.40;1.20;;;21.50;57.90;;;;;;4910483;28;93166;-63
2022/05/27 06:16:32;;;;;;;1.63;1.17;;;21.50;57.90;;;;;;4910208;28;92509;-63
2022/05/27 06:18:58;;;;;;;1.42;1.30;;;21.60;57.90;;;;;;4910237;28;93147;-64
2022/05/27 06:21:25;;;;;;;1.95;1.00;;;21.60;57.90;;;;;;4909879;28;92583;-63
2022/05/27 06:23:51;;;;;;;3.53;1.02;;;21.50;57.90;;;;;;4910963;28;92963;-63
2022/05/27 06:26:16;;;;;;;5.10;1.23;;;21.60;58.00;;;;;;4909928;28;93129;-63
2022/05/27 06:34:23;;;;;;;6.03;1.90;;;21.60;57.70;;;;;;4909867;28;92299;-63
2022/05/27 06:36:58;;;;;;;4.97;2.30;;;21.50;57.70;;;;;;4909145;28;92140;-63
2022/05/27 06:39:25;;;;;;;3.97;1.50;;;21.50;57.90;;;;;;4909206;28;93788;-64
2022/05/27 06:41:51;;;;;;;3.75;1.40;;;21.50;58.40;;;;;;4909551;28;92272;-63
2022/05/27 06:44:21;;;;;;;1.95;1.40;;;21.50;58.60;;;;;;4909641;28;91898;-63
2022/05/27 06:46:50;;;;;;;4.20;1.52;;;21.50;58.80;;;;;;4909478;28;91660;-63
2022/05/27 06:49:17;;;;;;;2.67;1.42;;;21.50;58.80;;;;;;4908515;28;93016;-63
2022/05/27 06:51:43;;;;;;;1.80;1.50;;;21.50;58.80;;;;;;4914692;28;93892;-62
2022/05/27 06:54:10;;;;;;;6.70;1.70;;;21.50;58.90;;;;;;4909784;28;93875;-62
2022/05/27 06:56:41;;;;;;;6.57;1.80;;;21.50;59.20;;;;;;4911589;28;93094;-63
2022/05/27 06:59:07;;;;;;;3.15;1.52;;;21.50;59.30;;;;;;4909595;28;93184;-63
2022/05/27 07:01:34;;;;;;;3.00;1.45;;;21.50;59.30;;;;;;4908576;28;95722;-63
2022/05/27 07:04:01;;;;;;;4.28;1.30;;;21.50;59.30;;;;;;4908861;28;93111;-63
2022/05/27 07:06:31;;;;;;;3.80;1.50;;;21.50;59.10;;;;;;4909797;28;93363;-62
2022/05/27 07:08:59;;;;;;;3.13;1.52;;;21.50;59.10;;;;;;4903771;28;95638;-63
2022/05/27 07:11:25;;;;;;;2.28;1.40;;;21.50;59.10;;;;;;4909222;28;92763;-64
2022/05/27 07:13:50;;;;;;;6.95;1.85;;;21.50;59.00;;;;;;4909103;28;92089;-64
2022/05/27 07:16:16;;;;;;;3.30;1.80;;;21.50;59.00;;;;;;4908026;28;92071;-63
2022/05/27 07:18:42;;;;;;;3.65;1.70;;;21.50;59.00;;;;;;4907238;28;94016;-64
2022/05/27 07:21:08;;;;;;;3.80;1.58;;;21.50;59.20;;;;;;4908658;28;92902;-64
2022/05/27 07:23:34;;;;;;;3.58;1.73;;;21.50;59.00;;;;;;4909154;28;92722;-64
2022/05/27 07:26:00;;;;;;;3.28;1.73;;;21.60;59.10;;;;;;4907789;28;92714;-64
2022/05/27 07:28:26;;;;;;;2.78;1.60;;;21.50;59.80;;;;;;4909188;28;92693;-65
2022/05/27 07:30:55;;;;;;;2.53;1.52;;;21.50;59.20;;;;;;4856621;28;94763;-65
2022/05/27 07:33:21;;;;;;;4.03;1.80;;;21.60;59.30;;;;;;4907884;28;92404;-64
2022/05/27 07:35:47;;;;;;;1.65;1.45;;;21.60;60.00;;;;;;4908995;28;91969;-64
2022/05/27 07:38:13;;;;;;;13.18;2.08;;;21.60;59.50;;;;;;4907839;28;95322;-65
2022/05/27 07:40:40;;;;;;;3.50;1.60;;;21.60;59.50;;;;;;4907829;28;92571;-64
2022/05/27 07:43:09;;;;;;;9.05;2.42;;;21.60;59.60;;;;;;4907753;28;94006;-65
2022/05/27 07:45:37;;;;;;;17.38;5.88;;;21.60;59.60;;;;;;4909211;28;93087;-65
2022/05/27 07:48:04;;;;;;;28.83;7.40;;;21.50;59.70;;;;;;4908641;28;93015;-65
2022/05/27 07:50:29;;;;;;;36.63;7.93;;;21.60;60.70;;;;;;4908293;28;93441;-65
2022/05/27 07:52:55;;;;;;;32.67;8.50;;;21.60;59.90;;;;;;4908592;28;92798;-65
2022/05/27 07:55:21;;;;;;;39.13;8.75;;;21.60;60.10;;;;;;4907538;28;92294;-65
2022/05/27 07:57:48;;;;;;;31.08;9.13;;;21.60;60.10;;;;;;4905777;28;92570;-64
2022/05/27 08:00:17;;;;;;;31.58;9.15;;;21.60;60.20;;;;;;4908338;28;92080;-64
2022/05/27 08:02:43;;;;;;;39.25;10.45;;;21.60;60.20;;;;;;4908228;28;92095;-65
2022/05/27 08:05:18;;;;;;;39.28;10.50;;;21.60;60.20;;;;;;4907793;28;92628;-63
2022/05/27 08:07:45;;;;;;;31.52;8.38;;;21.70;60.30;;;;;;4906600;28;94078;-64
2022/05/27 08:10:12;;;;;;;31.70;9.63;;;21.70;60.50;;;;;;4907763;28;94657;-63
2022/05/27 08:12:38;;;;;;;34.45;9.82;;;21.70;60.50;;;;;;4908533;28;93008;-64
2022/05/27 08:15:04;;;;;;;35.72;10.05;;;21.70;60.70;;;;;;4908166;28;92937;-64
2022/05/27 08:17:30;;;;;;;25.98;9.05;;;21.70;60.80;;;;;;4907239;28;92899;-64
2022/05/27 08:19:56;;;;;;;40.50;10.20;;;21.70;61.00;;;;;;4908733;28;92372;-64
2022/05/27 08:22:21;;;;;;;31.33;9.85;;;21.70;60.90;;;;;;4907927;28;93055;-64
2022/05/27 08:24:47;;;;;;;35.30;10.45;;;21.70;62.10;;;;;;4908472;28;91330;-64
2022/05/27 08:27:13;;;;;;;32.30;12.23;;;21.70;63.00;;;;;;4906727;28;93475;-64
2022/05/27 08:29:39;;;;;;;36.70;10.80;;;21.70;64.40;;;;;;4906518;28;95023;-64
2022/05/27 08:32:05;;;;;;;33.42;11.02;;;21.70;65.20;;;;;;4906920;28;93953;-64
2022/05/27 08:40:08;;;;;;;31.63;9.60;;;21.70;64.00;;;;;;4909994;28;92962;-64
2022/05/27 08:42:54;;;;;;;29.25;9.73;;;21.70;64.00;;;;;;4910911;28;92562;-64
2022/05/27 08:45:36;;;;;;;31.20;9.73;;;21.70;64.10;;;;;;4909822;28;92845;-64
2022/05/27 08:48:10;;;;;;;28.23;8.60;;;21.70;63.90;;;;;;4911110;28;93981;-64
2022/05/27 08:50:51;;;;;;;28.48;9.27;;;21.80;64.00;;;;;;4907469;28;97499;-63
2022/05/27 08:53:49;;;;;;;25.20;8.52;;;21.70;63.70;;;;;;4910174;28;92902;-63
2022/05/27 08:59:26;;;;;;;32.13;9.52;;;21.70;64.30;;;;;;4907717;28;93652;-64
2022/05/27 09:01:59;;;;;;;25.15;9.23;;;21.70;64.00;;;;;;4910712;28;92833;-64
2022/05/27 09:04:32;;;;;;;30.30;10.43;;;21.80;64.10;;;;;;4911215;28;91969;-64
2022/05/27 09:07:21;;;;;;;28.85;8.95;;;21.80;64.10;;;;;;4909440;28;92963;-63
2022/05/27 09:09:47;;;;;;;22.00;7.97;;;21.80;63.80;;;;;;4909964;28;93292;-63
2022/05/27 09:13:00;;;;;;;24.58;8.55;;;21.70;63.70;;;;;;4911210;28;93097;-62
2022/05/27 09:15:32;;;;;;;25.52;7.70;;;21.80;64.00;;;;;;4874238;28;92919;-63
2022/05/27 09:18:35;;;;;;;24.10;8.10;;;21.80;64.00;;;;;;4911353;28;91822;-64
2022/05/27 09:21:32;;;;;;;23.10;7.60;;;21.70;63.80;;;;;;4908717;28;95980;-63
2022/05/27 09:24:07;;;;;;;27.05;8.05;;;21.70;63.90;;;;;;4910726;28;92845;-65
2022/05/27 09:27:06;;;;;;;19.88;7.15;;;21.70;63.60;;;;;;4910817;28;93429;-65
2022/05/27 09:29:44;;;;;;;20.35;6.70;;;21.70;62.40;;;;;;4910518;28;92817;-63
2022/05/27 09:32:21;;;;;;;24.40;7.40;;;21.70;63.20;;;;;;4910359;28;93422;-64
2022/05/27 09:34:49;;;;;;;14.73;4.55;;;21.70;62.50;;;;;;4910487;28;92886;-63
2022/05/27 09:37:27;;;;;;;15.10;5.30;;;21.70;60.90;;;;;;4911164;28;92889;-63
2022/05/27 09:39:55;;;;;;;9.67;4.17;;;21.70;59.70;;;;;;4910907;28;92781;-63
2022/05/27 09:42:46;;;;;;;15.18;5.47;;;21.70;59.80;;;;;;4910320;28;93013;-63
2022/05/27 09:45:12;;;;;;;13.13;5.30;;;21.70;61.60;;;;;;4910421;28;92159;-63
2022/05/27 09:47:40;;;;;;;14.32;4.97;;;21.70;60.90;;;;;;4909824;28;92948;-63
2022/05/27 09:50:26;;;;;;;20.17;5.55;;;21.70;60.50;;;;;;4910479;28;92045;-65
2022/05/27 09:52:57;;;;;;;12.13;4.30;;;21.70;60.50;;;;;;4908754;28;94831;-63
2022/05/27 09:56:00;;;;;;;12.23;3.88;;;21.70;59.80;;;;;;4909729;28;93841;-62
2022/05/27 09:58:33;;;;;;;10.70;4.32;;;21.70;59.60;;;;;;4910406;28;92055;-64
2022/05/27 10:01:01;;;;;;;15.07;4.55;;;21.70;60.10;;;;;;4909681;28;93261;-64
2022/05/27 10:03:29;;;;;;;23.85;4.75;;;21.80;60.80;;;;;;4909544;28;92393;-64
2022/05/27 10:06:16;;;;;;;9.98;4.68;;;21.80;61.00;;;;;;4909828;28;92787;-63
2022/05/27 10:08:44;;;;;;;16.13;4.97;;;21.80;61.20;;;;;;4909620;28;92682;-64
2022/05/27 10:11:31;;;;;;;23.85;5.20;;;21.80;61.30;;;;;;4909427;28;91951;-63
2022/05/27 10:14:07;;;;;;;18.08;4.25;;;21.80;61.30;;;;;;4909256;28;92477;-63
2022/05/27 10:16:34;;;;;;;20.10;5.35;;;21.80;61.80;;;;;;4908865;28;93163;-63
2022/05/27 10:19:14;;;;;;;13.45;4.63;;;21.80;62.10;;;;;;4909289;28;92970;-65
2022/05/27 10:22:02;;;;;;;16.20;4.30;;;21.90;62.80;;;;;;4910151;28;92523;-65
2022/05/27 10:24:35;;;;;;;15.80;4.55;;;21.90;63.10;;;;;;4910238;28;93239;-65
2022/05/27 10:27:13;;;;;;;15.27;4.13;;;21.90;63.30;;;;;;4907791;28;93267;-63
2022/05/27 10:29:51;;;;;;;16.65;5.13;;;21.90;63.40;;;;;;4908152;28;93248;-63
2022/05/27 10:32:37;;;;;;;12.88;4.30;;;21.90;63.50;;;;;;4909777;28;92521;-63
2022/05/27 10:35:07;;;;;;;14.13;4.68;;;21.90;63.60;;;;;;4908714;28;93208;-65
2022/05/27 10:38:30;;;;;;;16.40;4.15;;;21.90;64.10;;;;;;4909843;28;93288;-64
2022/05/27 10:41:26;;;;;;;16.80;3.50;;;21.90;64.10;;;;;;4869110;28;92090;-64
2022/05/27 10:44:01;;;;;;;15.43;4.47;;;22.00;63.30;;;;;;4869265;28;92483;-63
2022/05/27 10:46:33;;;;;;;19.48;3.90;;;22.00;63.30;;;;;;4897035;28;94208;-64
2022/05/27 10:49:33;;;;;;;12.20;4.32;;;22.00;63.20;;;;;;4923745;28;96998;-63
2022/05/27 10:52:38;;;;;;;15.05;4.50;;;21.90;63.30;;;;;;4910277;28;92648;-64
2022/05/27 10:55:13;;;;;;;10.55;4.28;;;21.90;63.60;;;;;;4910110;28;92845;-64
2022/05/27 11:03:35;;;;;;;12.88;2.90;;;21.90;62.70;;;;;;4910089;28;92593;-64
2022/05/27 11:06:19;;;;;;;10.13;3.53;;;21.90;61.20;;;;;;4909447;28;92219;-63
2022/05/27 11:09:20;;;;;;;9.77;3.00;;;21.90;61.20;;;;;;4908510;28;93943;-64
2022/05/27 11:11:46;;;;;;;8.40;3.50;;;21.90;61.30;;;;;;4907144;28;93130;-63
2022/05/27 11:15:12;;;;;;;13.85;3.47;;;21.90;61.40;;;;;;4909181;28;94210;-64
2022/05/27 11:17:58;;;;;;;18.75;3.30;;;21.90;60.60;;;;;;4909762;28;92633;-64
2022/05/27 11:21:08;;;;;;;9.88;2.97;;;21.80;60.30;;;;;;4908694;28;93117;-63
2022/05/27 11:23:49;;;;;;;11.95;3.20;;;21.80;60.60;;;;;;4900812;28;93278;-64
2022/05/27 11:26:15;;;;;;;10.82;3.40;;;21.80;60.40;;;;;;4909723;28;92348;-63
2022/05/27 11:28:56;;;;;;;12.02;2.90;;;21.80;60.40;;;;;;4907822;28;93082;-63
2022/05/27 11:31:40;;;;;;;12.05;3.20;;;21.80;60.10;;;;;;4908519;28;94149;-64
2022/05/27 11:34:30;;;;;;;7.78;2.75;;;21.80;60.30;;;;;;4908926;28;93850;-64
2022/05/27 11:37:15;;;;;;;11.52;3.25;;;21.80;59.90;;;;;;4909344;28;91928;-64
2022/05/27 11:40:07;;;;;;;9.43;2.88;;;21.80;60.00;;;;;;4909566;28;92194;-63
2022/05/27 11:42:47;;;;;;;9.68;3.08;;;21.80;59.90;;;;;;4908257;28;94804;-64
2022/05/27 11:45:25;;;;;;;9.35;2.78;;;21.80;60.00;;;;;;4908184;28;94296;-62
2022/05/27 11:48:03;;;;;;;12.30;2.92;;;21.80;59.80;;;;;;4908926;28;92653;-64
2022/05/27 11:50:46;;;;;;;12.60;3.10;;;21.80;59.90;;;;;;4907508;28;93050;-63
2022/05/27 11:53:27;;;;;;;7.22;3.05;;;21.80;59.70;;;;;;4908092;28;93883;-62
2022/05/27 11:56:11;;;;;;;6.43;2.85;;;21.80;59.60;;;;;;4908316;28;93184;-63
2022/05/27 11:58:42;;;;;;;13.45;2.97;;;21.80;59.50;;;;;;4908500;28;92742;-63
2022/05/27 12:01:32;;;;;;;6.30;3.17;;;21.80;59.50;;;;;;4909292;28;91397;-64
2022/05/27 12:04:35;;;;;;;5.40;2.50;;;21.80;59.70;;;;;;4908355;28;93505;-63
2022/05/27 12:07:38;;;;;;;5.00;2.20;;;21.80;59.40;;;;;;4908136;28;92776;-64
2022/05/27 12:10:20;;;;;;;7.78;2.35;;;21.80;59.40;;;;;;4906036;28;93773;-63
2022/05/27 12:13:11;;;;;;;7.65;2.78;;;21.80;59.10;;;;;;4908778;28;92627;-63
2022/05/27 12:15:59;;;;;;;4.68;1.98;;;21.80;59.20;;;;;;4908690;28;93204;-63
2022/05/27 12:19:00;;;;;;;4.70;2.42;;;21.80;59.20;;;;;;4901141;28;94439;-63
2022/05/27 12:21:31;;;;;;;5.60;2.60;;;21.80;59.10;;;;;;4907533;28;93108;-62
2022/05/27 12:24:03;;;;;;;4.97;2.60;;;21.80;59.10;;;;;;4907433;28;92505;-63
2022/05/27 12:26:37;;;;;;;5.68;2.60;;;21.80;59.00;;;;;;4907829;28;93250;-63
2022/05/27 12:29:11;;;;;;;8.63;2.55;;;21.80;59.00;;;;;;4907894;28;92270;-63
2022/05/27 12:31:38;;;;;;;5.85;2.67;;;21.80;58.90;;;;;;4909001;28;92633;-63
2022/05/27 12:34:25;;;;;;;11.18;2.80;;;21.80;59.60;;;;;;4908048;28;92406;-64
2022/05/27 12:36:53;;;;;;;11.55;2.55;;;21.80;57.70;;;;;;4907608;28;93626;-63
2022/05/27 12:39:29;;;;;;;10.52;2.50;;;21.80;58.20;;;;;;4908195;28;95647;-63
2022/05/27 12:42:16;;;;;;;8.30;2.60;;;21.80;58.60;;;;;;4908710;28;92571;-63
2022/05/27 12:44:43;;;;;;;8.13;2.92;;;21.80;58.80;;;;;;4908266;28;92548;-63
2022/05/27 12:47:41;;;;;;;10.30;2.40;;;21.80;58.70;;;;;;4907709;28;92548;-63
2022/05/27 12:50:15;;;;;;;5.03;2.58;;;21.80;58.80;;;;;;4907314;28;93025;-63
2022/05/27 12:52:56;;;;;;;5.03;2.42;;;21.80;58.60;;;;;;4908281;28;92805;-63
2022/05/27 12:55:41;;;;;;;6.28;2.45;;;21.80;58.80;;;;;;4907544;28;91630;-63
2022/05/27 13:01:02;;;;;;;8.43;2.65;;;21.80;58.50;;;;;;4907816;28;93010;-63
2022/05/27 13:03:37;;;;;;;6.82;2.38;;;21.80;58.30;;;;;;4907719;28;93625;-63
2022/05/27 13:06:17;;;;;;;8.02;2.58;;;21.80;58.30;;;;;;4907040;28;92871;-63
2022/05/27 13:09:00;;;;;;;6.43;2.20;;;21.80;58.40;;;;;;4905273;28;94218;-64
2022/05/27 13:11:34;;;;;;;5.15;1.92;;;21.80;58.30;;;;;;4907692;28;92305;-62
2022/05/27 13:14:03;;;;;;;6.18;2.65;;;21.80;58.10;;;;;;4907770;28;92333;-63
2022/05/27 13:16:44;;;;;;;5.23;2.37;;;21.80;58.10;;;;;;4908531;28;93276;-63
2022/05/27 13:19:26;;;;;;;5.50;2.35;;;21.80;58.00;;;;;;4907949;28;93147;-63
2022/05/27 13:21:52;;;;;;;4.75;2.22;;;21.80;58.10;;;;;;4909024;28;93696;-63
2022/05/27 13:24:17;;;;;;;7.38;2.60;;;21.80;58.00;;;;;;4909889;28;92427;-63
2022/05/27 13:26:54;;;;;;;5.70;2.13;;;21.80;57.80;;;;;;4910690;28;92880;-63
2022/05/27 13:29:27;;;;;;;5.75;2.20;;;21.80;57.90;;;;;;4909719;28;94080;-63
2022/05/27 13:32:13;;;;;;;9.02;2.00;;;21.80;57.80;;;;;;4910318;28;93721;-63
2022/05/27 13:35:02;;;;;;;5.75;2.33;;;21.80;57.80;;;;;;4911270;28;92902;-63
2022/05/27 13:37:48;;;;;;;5.88;2.53;;;21.80;57.70;;;;;;4910608;28;92990;-63
2022/05/27 13:40:19;;;;;;;5.13;2.38;;;21.80;57.80;;;;;;4910555;28;93474;-64
2022/05/27 13:42:51;;;;;;;4.07;2.10;;;21.80;57.50;;;;;;4910505;28;93149;-64